createdAt,value
2023-04-18T00:00:10.239Z,2.10
2023-04-18T00:02:38.653Z,1.50
2023-04-18T00:05:09.508Z,1.75
2023-04-18T00:07:36.661Z,2.00
2023-04-18T00:10:05.428Z,2.03
2023-04-18T00:12:34.413Z,2.53
2023-04-18T00:15:02.894Z,2.03
2023-04-18T00:17:31.852Z,2.00
2023-04-18T00:19:58.983Z,2.45
2023-04-18T00:22:25.964Z,1.85
2023-04-18T00:24:53.032Z,1.75
2023-04-18T00:27:20.678Z,1.90
2023-04-18T00:29:48.115Z,1.45
2023-04-18T00:32:15.356Z,2.03
2023-04-18T00:34:42.358Z,2.35
2023-04-18T00:37:09.365Z,2.03
2023-04-18T00:39:36.808Z,1.85
2023-04-18T00:42:04.588Z,1.80
2023-04-18T00:44:32.334Z,2.40
2023-04-18T00:46:59.403Z,2.13
2023-04-18T00:49:27.139Z,2.03
2023-04-18T00:51:56.200Z,2.28
2023-04-18T00:54:24.481Z,2.25
2023-04-18T00:56:51.638Z,2.40
2023-04-18T00:59:19.087Z,2.50
2023-04-18T01:04:13.148Z,2.63
2023-04-18T01:06:41.436Z,1.50
2023-04-18T01:09:08.381Z,2.63
2023-04-18T01:11:36.119Z,2.80
2023-04-18T01:14:05.850Z,2.72
2023-04-18T01:16:33.314Z,2.58
2023-04-18T01:19:04.163Z,2.28
2023-04-18T01:21:34.009Z,2.67
2023-04-18T01:24:09.638Z,2.00
2023-04-18T01:26:36.571Z,2.17
2023-04-18T01:29:03.596Z,1.83
2023-04-18T01:31:30.689Z,1.77
2023-04-18T01:33:57.732Z,1.95
2023-04-18T01:36:24.618Z,1.75
2023-04-18T01:38:51.503Z,1.75
2023-04-18T01:41:18.474Z,1.73
2023-04-18T01:43:46.160Z,1.85
2023-04-18T01:46:13.093Z,1.55
2023-04-18T01:48:40.063Z,2.20
2023-04-18T01:51:07.027Z,1.77
2023-04-18T01:53:33.924Z,1.40
2023-04-18T01:56:00.923Z,1.80
2023-04-18T01:58:27.871Z,2.10
2023-04-18T02:00:55.428Z,1.77
2023-04-18T02:03:22.528Z,2.00
2023-04-18T02:05:49.694Z,1.88
2023-04-18T02:08:16.609Z,1.60
2023-04-18T02:10:43.515Z,1.33
2023-04-18T02:13:10.536Z,1.58
2023-04-18T02:15:37.658Z,1.73
2023-04-18T02:18:04.748Z,1.80
2023-04-18T02:20:34.978Z,2.13
2023-04-18T02:23:02.398Z,1.60
2023-04-18T02:27:57.587Z,1.80
2023-04-18T02:30:25.762Z,1.40
2023-04-18T02:32:57.303Z,1.52
2023-04-18T02:35:25.685Z,1.58
2023-04-18T02:37:52.611Z,2.00
2023-04-18T02:40:19.905Z,2.08
2023-04-18T02:42:46.913Z,1.55
2023-04-18T02:45:13.911Z,1.98
2023-04-18T02:47:53.649Z,2.03
2023-04-18T02:50:22.076Z,1.98
2023-04-18T02:52:48.984Z,1.52
2023-04-18T02:55:16.295Z,1.95
2023-04-18T02:57:43.290Z,1.63
2023-04-18T03:00:10.756Z,1.90
2023-04-18T03:05:05.555Z,1.50
2023-04-18T03:07:32.691Z,2.08
2023-04-18T03:10:00.046Z,1.80
2023-04-18T03:12:26.975Z,2.00
2023-04-18T03:14:53.951Z,1.85
2023-04-18T03:17:20.985Z,1.73
2023-04-18T03:19:48.000Z,1.48
2023-04-18T03:22:15.520Z,2.20
2023-04-18T03:24:42.403Z,2.00
2023-04-18T03:27:09.341Z,1.80
2023-04-18T03:29:36.296Z,2.53
2023-04-18T03:32:03.581Z,1.90
2023-04-18T03:34:30.605Z,1.70
2023-04-18T03:36:57.512Z,2.13
2023-04-18T03:39:24.434Z,2.17
2023-04-18T03:41:52.269Z,1.95
2023-04-18T03:44:19.302Z,1.83
2023-04-18T03:46:46.392Z,2.10
2023-04-18T03:49:13.397Z,1.90
2023-04-18T03:51:47.408Z,1.98
2023-04-18T03:54:15.763Z,2.00
2023-04-18T03:56:43.079Z,2.17
2023-04-18T03:59:10.607Z,2.80
2023-04-18T04:01:37.805Z,2.33
2023-04-18T04:04:05.327Z,2.67
2023-04-18T04:06:32.603Z,2.35
2023-04-18T04:08:59.538Z,2.40
2023-04-18T04:11:26.876Z,2.40
2023-04-18T04:13:53.880Z,2.03
2023-04-18T04:16:21.005Z,2.03
2023-04-18T04:18:47.938Z,1.73
2023-04-18T04:21:14.912Z,1.67
2023-04-18T04:23:42.613Z,1.98
2023-04-18T04:26:09.764Z,1.90
2023-04-18T04:28:36.707Z,2.08
2023-04-18T04:31:08.291Z,1.88
2023-04-18T04:33:35.692Z,1.90
2023-04-18T04:36:02.631Z,2.00
2023-04-18T04:38:31.052Z,1.67
2023-04-18T04:40:58.526Z,2.00
2023-04-18T04:43:26.177Z,2.33
2023-04-18T04:45:53.626Z,2.45
2023-04-18T04:48:22.165Z,2.53
2023-04-18T04:50:57.016Z,2.00
2023-04-18T04:53:26.255Z,1.85
2023-04-18T04:55:53.163Z,2.10
2023-04-18T04:58:20.541Z,2.05
2023-04-18T05:00:48.024Z,2.40
2023-04-18T05:05:42.055Z,1.80
2023-04-18T05:08:08.959Z,2.13
2023-04-18T05:10:38.564Z,1.90
2023-04-18T05:13:05.986Z,2.70
2023-04-18T05:17:59.898Z,1.83
2023-04-18T05:20:26.897Z,2.35
2023-04-18T05:22:53.942Z,1.75
2023-04-18T05:25:21.117Z,2.03
2023-04-18T05:27:48.069Z,2.30
2023-04-18T05:30:15.064Z,2.25
2023-04-18T05:32:42.184Z,1.70
2023-04-18T05:35:09.407Z,1.85
2023-04-18T05:37:36.318Z,1.90
2023-04-18T05:40:05.108Z,1.90
2023-04-18T05:42:32.018Z,1.92
2023-04-18T05:44:58.983Z,2.00
2023-04-18T05:47:28.598Z,1.60
2023-04-18T05:49:55.874Z,2.22
2023-04-18T05:52:22.884Z,1.65
2023-04-18T05:54:49.759Z,2.05
2023-04-18T05:57:16.712Z,1.98
2023-04-18T05:59:43.666Z,1.73
2023-04-18T06:02:13.632Z,1.45
2023-04-18T06:04:42.753Z,1.33
2023-04-18T06:07:10.295Z,1.67
2023-04-18T06:12:04.608Z,1.70
2023-04-18T06:14:31.884Z,1.55
2023-04-18T06:19:25.852Z,1.60
2023-04-18T06:21:53.416Z,1.35
2023-04-18T06:24:20.742Z,1.52
2023-04-18T06:29:14.741Z,1.50
2023-04-18T06:31:42.312Z,1.77
2023-04-18T06:34:09.498Z,1.80
2023-04-18T06:36:36.419Z,1.02
2023-04-18T06:39:03.897Z,1.65
2023-04-18T06:41:31.620Z,1.60
2023-04-18T06:46:28.528Z,1.75
2023-04-18T06:48:55.564Z,1.48
2023-04-18T06:51:22.477Z,3.00
2023-04-18T06:53:52.775Z,2.03
2023-04-18T06:56:20.997Z,1.63
2023-04-18T06:58:48.458Z,1.95
2023-04-18T07:01:15.513Z,2.00
2023-04-18T07:03:42.561Z,2.40
2023-04-18T07:06:10.655Z,3.33
2023-04-18T07:08:37.892Z,3.13
2023-04-18T07:13:32.463Z,2.75
2023-04-18T07:15:59.521Z,1.83
2023-04-18T07:18:36.647Z,2.72
2023-04-18T07:21:07.497Z,2.60
2023-04-18T07:23:35.318Z,2.92
2023-04-18T07:26:03.182Z,1.75
2023-04-18T07:28:32.161Z,2.20
2023-04-18T07:30:59.802Z,2.22
2023-04-18T07:33:26.852Z,1.92
2023-04-18T07:35:53.744Z,2.33
2023-04-18T07:38:20.749Z,2.35
2023-04-18T07:40:55.978Z,2.50
2023-04-18T07:43:22.970Z,2.42
2023-04-18T07:45:49.924Z,2.17
2023-04-18T07:48:17.052Z,2.03
2023-04-18T07:53:10.966Z,2.85
2023-04-18T07:55:37.847Z,3.63
2023-04-18T07:58:04.768Z,2.60
2023-04-18T08:00:32.838Z,3.20
2023-04-18T08:02:59.995Z,2.65
2023-04-18T08:05:27.179Z,2.50
2023-04-18T08:07:54.116Z,2.28
2023-04-18T08:10:23.246Z,2.75
2023-04-18T08:12:50.802Z,3.00
2023-04-18T08:15:17.736Z,3.17
2023-04-18T08:17:45.365Z,3.08
2023-04-18T08:20:13.095Z,3.33
2023-04-18T08:22:53.825Z,4.60
2023-04-18T08:25:27.160Z,4.07
2023-04-18T08:30:20.907Z,3.53
2023-04-18T08:32:48.001Z,3.00
2023-04-18T08:35:15.094Z,2.50
2023-04-18T08:37:42.134Z,3.10
2023-04-18T08:40:09.676Z,2.70
2023-04-18T08:42:39.648Z,2.83
2023-04-18T08:45:07.112Z,2.85
2023-04-18T08:47:36.096Z,2.45
2023-04-18T08:50:03.342Z,3.85
2023-04-18T08:52:32.051Z,3.13
2023-04-18T08:54:59.010Z,3.25
2023-04-18T08:57:28.644Z,2.38
2023-04-18T08:59:55.681Z,2.53
2023-04-18T09:02:35.443Z,2.53
2023-04-18T09:07:36.867Z,2.03
2023-04-18T09:10:03.882Z,2.50
2023-04-18T09:15:16.700Z,2.08
2023-04-18T09:17:49.383Z,1.95
2023-04-18T09:20:34.691Z,2.20
2023-04-18T09:23:04.107Z,1.58
2023-04-18T09:25:45.072Z,1.50
2023-04-18T09:28:29.788Z,1.90
2023-04-18T09:30:59.108Z,1.95
2023-04-18T09:33:34.184Z,2.00
2023-04-18T09:36:16.778Z,1.90
2023-04-18T09:38:43.766Z,1.65
2023-04-18T09:41:12.264Z,2.53
2023-04-18T09:43:39.551Z,2.35
2023-04-18T09:46:08.008Z,1.88
2023-04-18T09:48:35.962Z,1.45
2023-04-18T09:51:07.392Z,2.03
2023-04-18T09:53:44.523Z,1.70
2023-04-18T09:56:27.936Z,1.83
2023-04-18T09:59:11.485Z,1.95
2023-04-18T10:01:41.387Z,1.90
2023-04-18T10:04:09.826Z,1.90
2023-04-18T10:06:39.895Z,1.80
2023-04-18T10:09:09.440Z,1.30
2023-04-18T10:11:37.168Z,1.85
2023-04-18T10:14:09.794Z,1.55
2023-04-18T10:16:38.010Z,1.67
2023-04-18T10:19:29.660Z,1.50
2023-04-18T10:21:58.494Z,1.35
2023-04-18T10:24:53.739Z,1.23
2023-04-18T10:27:48.982Z,1.40
2023-04-18T10:30:16.930Z,1.52
2023-04-18T10:32:45.907Z,1.67
2023-04-18T10:35:13.104Z,1.58
2023-04-18T10:38:01.910Z,1.50
2023-04-18T10:40:34.121Z,1.45
2023-04-18T10:43:01.526Z,1.00
2023-04-18T10:45:31.342Z,1.52
2023-04-18T10:48:29.668Z,1.48
2023-04-18T10:51:22.876Z,1.85
2023-04-18T10:53:56.561Z,1.60
2023-04-18T10:56:23.788Z,1.40
2023-04-18T10:58:53.039Z,1.52
2023-04-18T11:01:31.754Z,1.65
2023-04-18T11:04:00.458Z,1.40
2023-04-18T11:06:27.888Z,1.70
2023-04-18T11:09:11.401Z,1.35
2023-04-18T11:11:38.296Z,1.48
2023-04-18T11:14:05.267Z,1.50
2023-04-18T11:16:34.700Z,1.65
2023-04-18T11:19:17.282Z,1.67
2023-04-18T11:21:44.334Z,1.27
2023-04-18T11:24:11.332Z,1.13
2023-04-18T11:26:38.953Z,1.13
2023-04-18T11:29:06.618Z,1.33
2023-04-18T11:31:33.605Z,1.42
2023-04-18T11:34:02.103Z,1.73
2023-04-18T11:36:29.058Z,1.63
2023-04-18T11:41:23.529Z,1.90
2023-04-18T11:46:17.419Z,3.60
2023-04-18T11:48:47.897Z,3.13
2023-04-18T11:51:44.790Z,2.50
2023-04-18T11:54:41.274Z,1.98
2023-04-18T11:57:19.322Z,1.42
2023-04-18T11:59:53.715Z,2.22
2023-04-18T12:02:22.533Z,2.08
2023-04-18T12:04:57.760Z,1.45
2023-04-18T12:07:35.152Z,1.88
2023-04-18T12:10:03.893Z,1.80
2023-04-18T12:12:30.874Z,2.13
2023-04-18T12:17:44.932Z,2.20
2023-04-18T12:20:13.533Z,1.60
2023-04-18T12:22:58.596Z,1.58
2023-04-18T12:25:29.232Z,1.98
2023-04-18T12:28:00.560Z,2.03
2023-04-18T12:30:28.494Z,2.42
2023-04-18T12:33:01.402Z,2.17
2023-04-18T12:35:29.530Z,2.45
2023-04-18T12:37:58.711Z,2.35
2023-04-18T12:40:26.870Z,3.35
2023-04-18T12:42:55.113Z,2.00
2023-04-18T12:45:23.890Z,1.60
2023-04-18T12:47:52.215Z,1.50
2023-04-18T12:50:25.409Z,1.50
2023-04-18T12:52:54.778Z,1.67
2023-04-18T12:55:22.899Z,1.85
2023-04-18T12:57:54.531Z,1.70
2023-04-18T13:00:23.740Z,1.70
2023-04-18T13:02:52.673Z,1.75
2023-04-18T13:05:21.791Z,1.92
2023-04-18T13:07:49.900Z,1.80
2023-04-18T13:10:19.056Z,1.70
2023-04-18T13:12:46.647Z,1.58
2023-04-18T13:15:13.864Z,2.00
2023-04-18T13:17:40.915Z,1.80
2023-04-18T13:22:38.416Z,2.00
2023-04-18T13:25:07.253Z,2.03
2023-04-18T13:27:34.476Z,2.25
2023-04-18T13:30:01.515Z,2.33
2023-04-18T13:32:28.573Z,2.55
2023-04-18T13:34:56.424Z,3.38
2023-04-18T13:37:23.701Z,3.95
2023-04-18T13:42:19.408Z,4.05
2023-04-18T13:44:46.874Z,2.20
2023-04-18T13:47:13.884Z,2.90
2023-04-18T13:49:41.114Z,2.63
2023-04-18T13:52:08.393Z,2.30
2023-04-18T13:54:37.050Z,2.08
2023-04-18T13:57:04.103Z,2.30
2023-04-18T13:59:32.420Z,2.42
2023-04-18T14:01:59.865Z,2.63
2023-04-18T14:04:27.478Z,3.38
2023-04-18T14:06:55.056Z,7.80
2023-04-18T14:11:48.981Z,2.67
2023-04-18T14:14:15.997Z,2.45
2023-04-18T14:16:43.001Z,1.92
2023-04-18T14:19:09.951Z,2.25
2023-04-18T14:21:37.178Z,8.77
2023-04-18T14:24:06.029Z,3.10
2023-04-18T14:26:33.142Z,4.70
2023-04-18T14:29:00.638Z,4.05
2023-04-18T14:33:55.327Z,4.68
2023-04-18T14:36:22.347Z,4.78
2023-04-18T14:38:50.227Z,3.25
2023-04-18T14:41:17.239Z,4.13
2023-04-18T14:43:44.236Z,6.03
2023-04-18T14:46:16.667Z,5.85
2023-04-18T14:48:47.477Z,4.60
2023-04-18T14:51:16.635Z,7.70
2023-04-18T14:53:44.515Z,4.07
2023-04-18T14:56:11.624Z,3.08
2023-04-18T14:58:38.630Z,2.35
2023-04-18T15:01:05.930Z,3.00
2023-04-18T15:03:33.385Z,2.97
2023-04-18T15:06:00.684Z,3.08
2023-04-18T15:08:27.794Z,3.95
2023-04-18T15:10:54.713Z,3.58
2023-04-18T15:13:21.689Z,7.82
2023-04-18T15:15:53.231Z,3.65
2023-04-18T15:18:20.508Z,3.00
2023-04-18T15:20:47.612Z,3.28
2023-04-18T15:23:15.232Z,2.67
2023-04-18T15:25:43.878Z,2.35
2023-04-18T15:28:10.881Z,3.22
2023-04-18T15:30:39.399Z,2.92
2023-04-18T15:33:06.424Z,2.40
2023-04-18T15:35:33.384Z,2.60
2023-04-18T15:38:00.426Z,2.40
2023-04-18T15:40:27.609Z,2.45
2023-04-18T15:42:56.104Z,1.58
2023-04-18T15:45:23.075Z,1.83
2023-04-18T15:47:50.533Z,1.30
2023-04-18T15:50:17.649Z,1.65
2023-04-18T15:52:44.783Z,1.20
2023-04-18T15:55:13.303Z,1.25
2023-04-18T15:57:41.817Z,1.40
2023-04-18T16:00:16.322Z,1.10
2023-04-18T16:02:46.863Z,1.10
2023-04-18T16:05:15.474Z,0.98
2023-04-18T16:07:43.320Z,1.40
2023-04-18T16:10:11.167Z,1.20
2023-04-18T16:12:39.245Z,1.30
2023-04-18T16:15:08.697Z,1.33
2023-04-18T16:17:37.114Z,1.30
2023-04-18T16:20:06.373Z,0.90
2023-04-18T16:22:33.650Z,0.63
2023-04-18T16:25:00.594Z,1.13
2023-04-18T16:27:27.589Z,1.40
2023-04-18T16:29:54.753Z,0.90
2023-04-18T16:32:21.782Z,1.20
2023-04-18T16:34:48.943Z,1.65
2023-04-18T16:37:15.999Z,4.45
2023-04-18T16:39:42.960Z,6.63
2023-04-18T16:42:10.241Z,0.95
2023-04-18T16:44:37.412Z,4.45
2023-04-18T16:47:06.107Z,0.95
2023-04-18T16:49:33.076Z,0.73
2023-04-18T16:52:00.175Z,0.88
2023-04-18T16:54:27.145Z,1.00
2023-04-18T16:56:54.066Z,1.20
2023-04-18T16:59:21.026Z,0.80
2023-04-18T17:01:48.007Z,2.05
2023-04-18T17:04:16.025Z,1.17
2023-04-18T17:06:43.838Z,1.98
2023-04-18T17:09:13.581Z,2.35
2023-04-18T17:11:41.851Z,1.63
2023-04-18T17:14:09.129Z,2.00
2023-04-18T17:16:40.090Z,2.60
2023-04-18T17:19:07.633Z,2.42
2023-04-18T17:24:03.792Z,3.40
2023-04-18T17:26:31.149Z,2.20
2023-04-18T17:28:58.391Z,1.15
2023-04-18T17:31:25.406Z,1.70
2023-04-18T17:33:53.290Z,1.70
2023-04-18T17:36:20.526Z,1.10
2023-04-18T17:38:50.330Z,1.48
2023-04-18T17:41:18.913Z,1.77
2023-04-18T17:43:47.977Z,1.80
2023-04-18T17:46:15.600Z,4.05
2023-04-18T17:48:42.648Z,4.43
2023-04-18T17:51:09.697Z,5.50
2023-04-18T17:53:36.632Z,4.50
2023-04-18T17:56:03.900Z,3.63
2023-04-18T17:58:31.344Z,3.30
2023-04-18T18:03:25.557Z,3.00
2023-04-18T18:05:55.065Z,4.68
2023-04-18T18:08:22.739Z,3.95
2023-04-18T18:10:50.048Z,3.30
2023-04-18T18:13:17.112Z,5.88
2023-04-18T18:15:44.044Z,4.95
2023-04-18T18:18:11.121Z,5.70
2023-04-18T18:20:38.223Z,5.88
2023-04-18T18:23:06.840Z,8.57
2023-04-18T18:25:33.883Z,7.75
2023-04-18T18:28:02.283Z,3.85
2023-04-18T18:30:29.836Z,5.05
2023-04-18T18:32:57.555Z,4.97
2023-04-18T18:35:24.725Z,4.35
2023-04-18T18:37:51.639Z,10.75
2023-04-18T18:40:18.687Z,15.85
2023-04-18T18:42:45.714Z,7.78
2023-04-18T18:45:12.634Z,5.45
2023-04-18T18:47:40.173Z,5.78
2023-04-18T18:50:07.795Z,5.53
2023-04-18T18:55:01.754Z,5.80
2023-04-18T18:57:28.714Z,6.10
2023-04-18T18:59:56.051Z,5.47
2023-04-18T19:04:52.552Z,12.35
2023-04-18T19:07:19.660Z,19.90
2023-04-18T19:09:47.390Z,17.15
2023-04-18T19:12:14.356Z,13.57
2023-04-18T19:14:42.354Z,11.70
2023-04-18T19:17:09.848Z,16.35
2023-04-18T19:22:03.776Z,9.30
2023-04-18T19:24:31.987Z,8.20
2023-04-18T19:26:59.843Z,7.18
2023-04-18T19:29:27.035Z,7.75
2023-04-18T19:31:54.231Z,7.15
2023-04-18T19:34:22.320Z,7.85
2023-04-18T19:36:49.292Z,8.02
2023-04-18T19:39:17.507Z,8.35
2023-04-18T19:41:44.496Z,9.15
2023-04-18T19:44:11.611Z,8.00
2023-04-18T19:46:38.833Z,15.10
2023-04-18T19:49:05.924Z,13.77
2023-04-18T19:51:32.909Z,10.93
2023-04-18T19:54:00.008Z,9.93
2023-04-18T19:56:27.104Z,15.40
2023-04-18T19:58:54.126Z,11.93
2023-04-18T20:01:21.618Z,8.88
2023-04-18T20:03:48.970Z,9.02
2023-04-18T20:08:45.846Z,7.85
2023-04-18T20:11:16.611Z,8.32
2023-04-18T20:13:43.534Z,11.05
2023-04-18T20:16:12.371Z,11.63
2023-04-18T20:18:41.769Z,14.27
2023-04-18T20:21:09.986Z,16.60
2023-04-18T20:23:37.567Z,14.18
2023-04-18T20:28:32.334Z,9.02
2023-04-18T20:30:59.706Z,10.40
2023-04-18T20:33:26.637Z,8.35
2023-04-18T20:35:54.784Z,6.30
2023-04-18T20:38:29.673Z,6.15
2023-04-18T20:40:58.965Z,6.95
2023-04-18T20:43:26.848Z,7.47
2023-04-18T20:45:54.612Z,7.38
2023-04-18T20:48:21.783Z,12.30
2023-04-18T20:50:51.973Z,12.15
2023-04-18T20:53:27.094Z,8.13
2023-04-18T20:55:54.849Z,6.65
2023-04-18T20:58:21.828Z,5.70
2023-04-18T21:00:49.125Z,6.07
2023-04-18T21:03:16.599Z,7.03
2023-04-18T21:05:44.995Z,6.68
2023-04-18T21:08:12.069Z,12.98
2023-04-18T21:10:39.800Z,12.68
2023-04-18T21:13:06.870Z,13.25
2023-04-18T21:15:35.827Z,11.00
2023-04-18T21:18:02.847Z,10.00
2023-04-18T21:20:29.887Z,9.35
2023-04-18T21:22:56.892Z,12.73
2023-04-18T21:25:23.819Z,11.82
2023-04-18T21:27:50.935Z,10.00
2023-04-18T21:30:18.224Z,8.80
2023-04-18T21:32:47.350Z,9.23
2023-04-18T21:35:15.637Z,8.98
2023-04-18T21:37:44.387Z,21.35
2023-04-18T21:40:11.562Z,13.73
2023-04-18T21:42:38.512Z,13.77
2023-04-18T21:45:06.382Z,13.80
2023-04-18T21:47:33.462Z,12.82
2023-04-18T21:50:00.536Z,13.00
2023-04-18T21:52:27.454Z,11.02
2023-04-18T21:54:54.437Z,9.48
2023-04-18T21:57:21.388Z,12.30
2023-04-18T21:59:49.418Z,7.95
2023-04-18T22:02:16.463Z,15.27
2023-04-18T22:04:44.255Z,9.57
2023-04-18T22:07:15.655Z,8.35
2023-04-18T22:09:43.527Z,8.13
2023-04-18T22:12:11.536Z,8.13
2023-04-18T22:14:38.475Z,8.10
2023-04-18T22:17:05.454Z,7.50
2023-04-18T22:19:32.747Z,8.05
2023-04-18T22:21:59.721Z,7.45
2023-04-18T22:24:26.719Z,7.72
2023-04-18T22:26:53.826Z,7.22
2023-04-18T22:29:20.981Z,7.60
2023-04-18T22:31:47.935Z,8.57
2023-04-18T22:34:15.077Z,7.28
2023-04-18T22:36:42.941Z,7.82
2023-04-18T22:39:09.938Z,8.35
2023-04-18T22:41:36.900Z,7.28
2023-04-18T22:44:04.787Z,7.25
2023-04-18T22:46:33.013Z,7.25
2023-04-18T22:49:00.062Z,8.68
2023-04-18T22:51:28.739Z,10.10
2023-04-18T22:53:56.372Z,7.72
2023-04-18T22:58:50.338Z,7.03
2023-04-18T23:01:17.441Z,9.65
2023-04-18T23:03:44.577Z,8.00
2023-04-18T23:06:11.724Z,5.63
2023-04-18T23:08:38.742Z,7.45
2023-04-18T23:11:05.821Z,7.20
2023-04-18T23:13:32.742Z,6.75
2023-04-18T23:15:59.720Z,7.40
2023-04-18T23:18:30.086Z,6.93
2023-04-18T23:20:57.073Z,6.72
2023-04-18T23:23:24.001Z,6.40
2023-04-18T23:25:50.902Z,4.95
2023-04-18T23:28:18.136Z,6.22
2023-04-18T23:30:45.125Z,7.32
2023-04-18T23:33:12.032Z,5.78
2023-04-18T23:35:39.142Z,6.85
2023-04-18T23:38:06.133Z,5.85
2023-04-18T23:40:33.041Z,5.82
2023-04-18T23:43:00.140Z,7.53
2023-04-18T23:45:28.632Z,5.28
2023-04-18T23:47:55.799Z,5.22
2023-04-18T23:50:22.780Z,3.78
2023-04-18T23:52:49.703Z,5.90
2023-04-18T23:55:17.212Z,4.88
